Time;durP1;ratioP1;P1;durP2;ratioP2;P2;SDS_P1;SDS_P2;PMS_P1;PMS_P2;Temp;Humidity;BMP_temperature;BMP_pressure;BME280_temperature;BME280_humidity;BME280_pressure;Samples;Min_cycle;Max_cycle;Signal;HPM_P1;HPM_P2
2023/06/23 00:01:15;;;;;;;11.10;2.50;;;;;;;18.68;100.00;100309.41;5002670;28;20235;-76
2023/06/23 00:03:43;;;;;;;4.33;2.83;;;;;;;18.69;100.00;100305.72;5006137;28;20219;-76
2023/06/23 00:06:09;;;;;;;6.47;2.37;;;;;;;18.68;100.00;100307.56;5008142;28;20213;-76
2023/06/23 00:08:38;;;;;;;4.27;2.40;;;;;;;18.68;100.00;100294.09;5008399;28;20237;-76
2023/06/23 00:11:06;;;;;;;4.80;2.33;;;;;;;18.67;100.00;100297.78;5009127;28;20237;-77
2023/06/23 00:13:34;;;;;;;3.63;1.87;;;;;;;18.68;100.00;100304.03;5003743;28;20321;-77
2023/06/23 00:16:01;;;;;;;5.30;2.27;;;;;;;18.68;100.00;100296.78;5005967;28;20215;-77
2023/06/23 00:18:27;;;;;;;6.07;2.20;;;;;;;18.67;100.00;100297.78;5003556;28;20209;-76
2023/06/23 00:20:54;;;;;;;4.60;2.23;;;;;;;18.67;100.00;100289.69;5009788;28;20231;-77
2023/06/23 00:23:21;;;;;;;4.90;2.43;;;;;;;18.69;100.00;100300.31;5008676;28;20265;-77
2023/06/23 00:25:47;;;;;;;4.67;2.27;;;;;;;18.67;100.00;100287.00;5010856;28;20213;-77
2023/06/23 00:28:15;;;;;;;6.10;2.30;;;;;;;18.68;100.00;100293.22;5008378;28;20208;-77
2023/06/23 00:30:42;;;;;;;6.40;2.20;;;;;;;18.65;100.00;100288.16;5001066;28;20668;-76
2023/06/23 00:33:08;;;;;;;3.90;2.23;;;;;;;18.65;100.00;100297.09;5006012;28;20212;-78
2023/06/23 00:35:34;;;;;;;4.33;2.23;;;;;;;18.64;100.00;100295.38;5003377;28;20673;-77
2023/06/23 00:38:01;;;;;;;6.90;2.30;;;;;;;18.65;100.00;100312.44;5008168;28;20214;-77
2023/06/23 00:40:28;;;;;;;3.30;2.10;;;;;;;18.64;100.00;100314.28;5002702;28;20624;-77
2023/06/23 00:42:54;;;;;;;7.17;2.47;;;;;;;18.62;100.00;100319.00;5011495;28;20228;-78
2023/06/23 00:45:23;;;;;;;7.07;3.10;;;;;;;18.62;100.00;100321.69;5005237;28;20402;-77
2023/06/23 00:47:52;;;;;;;4.17;2.27;;;;;;;18.61;100.00;100325.41;5005048;28;20653;-77
2023/06/23 00:50:21;;;;;;;3.60;2.00;;;;;;;18.62;100.00;100327.09;5005067;28;20729;-77
2023/06/23 00:52:50;;;;;;;5.83;2.20;;;;;;;18.62;100.00;100334.34;4999731;28;20225;-77
2023/06/23 00:55:18;;;;;;;4.27;2.30;;;;;;;18.62;100.00;100335.19;5008349;28;20284;-77
2023/06/23 00:57:45;;;;;;;8.03;2.60;;;;;;;18.62;100.00;100331.66;5007107;28;20205;-78
2023/06/23 01:00:17;;;;;;;5.73;2.57;;;;;;;18.60;100.00;100329.09;5007056;28;20240;-78
2023/06/23 01:02:45;;;;;;;5.23;3.37;;;;;;;18.60;100.00;100334.50;5004227;28;20209;-78
2023/06/23 01:05:12;;;;;;;9.83;4.53;;;;;;;18.59;100.00;100338.19;5004267;28;20217;-78
2023/06/23 01:07:43;;;;;;;10.73;4.17;;;;;;;18.59;100.00;100334.66;5007018;28;20210;-77
2023/06/23 01:10:15;;;;;;;8.77;4.67;;;;;;;18.58;100.00;100341.00;4994293;28;20254;-78
2023/06/23 01:12:49;;;;;;;6.40;4.23;;;;;;;18.56;100.00;100341.16;4994087;28;20253;-78
2023/06/23 01:15:18;;;;;;;11.20;4.70;;;;;;;18.54;100.00;100337.78;4994152;28;20199;-78
2023/06/23 01:17:58;;;;;;;10.27;4.27;;;;;;;18.54;100.00;100340.47;4993786;28;20711;-77
2023/06/23 01:20:29;;;;;;;10.70;4.87;;;;;;;18.52;100.00;100347.88;4994389;28;20234;-78
2023/06/23 01:23:19;;;;;;;8.30;5.03;;;;;;;18.50;100.00;100343.63;4994027;28;20213;-78
2023/06/23 01:25:54;;;;;;;11.90;6.53;;;;;;;18.48;100.00;100354.56;4993626;28;20191;-78
2023/06/23 01:28:48;;;;;;;15.07;7.23;;;;;;;18.46;100.00;100359.25;4993793;28;20296;-76
2023/06/23 01:31:21;;;;;;;8.37;6.77;;;;;;;18.46;100.00;100356.56;4983683;28;20213;-78
2023/06/23 01:33:56;;;;;;;10.87;7.33;;;;;;;18.44;100.00;100360.44;4993553;28;20192;-78
2023/06/23 01:36:31;;;;;;;13.77;8.27;;;;;;;18.44;100.00;100355.06;4994009;28;20239;-77
2023/06/23 01:39:03;;;;;;;9.77;8.20;;;;;;;18.42;100.00;100363.28;4993328;28;20230;-78
2023/06/23 01:41:33;;;;;;;12.37;8.57;;;;;;;18.42;100.00;100357.91;4993405;28;20214;-78
2023/06/23 01:44:05;;;;;;;9.70;8.70;;;;;;;18.40;100.00;100362.59;4993335;28;20213;-78
2023/06/23 01:46:34;;;;;;;14.00;8.83;;;;;;;18.41;100.00;100366.16;4993528;28;20209;-78
2023/06/23 01:49:10;;;;;;;11.30;8.67;;;;;;;18.41;100.00;100371.53;4993223;28;20237;-78
2023/06/23 01:51:38;;;;;;;10.57;9.13;;;;;;;18.38;100.00;100367.28;4993417;28;20711;-78
2023/06/23 01:54:07;;;;;;;13.50;8.50;;;;;;;18.37;100.00;100371.00;4993435;28;20676;-77
2023/06/23 01:56:34;;;;;;;14.10;9.33;;;;;;;18.38;100.00;100362.75;4993375;28;20720;-78
2023/06/23 01:59:03;;;;;;;10.17;8.30;;;;;;;18.39;100.00;100363.59;4992292;28;20234;-79
2023/06/23 02:01:32;;;;;;;13.07;9.27;;;;;;;18.38;100.00;100357.34;4993706;28;20639;-78
2023/06/23 02:04:01;;;;;;;12.13;8.60;;;;;;;18.38;100.00;100365.44;4992858;28;20210;-78
2023/06/23 02:06:29;;;;;;;15.43;9.33;;;;;;;18.37;100.00;100366.44;4993198;28;20587;-79
2023/06/23 02:08:56;;;;;;;10.30;7.93;;;;;;;18.38;100.00;100361.91;4993102;28;20237;-78
2023/06/23 02:11:23;;;;;;;12.13;8.70;;;;;;;18.37;100.00;100360.22;4993548;28;20218;-78
2023/06/23 02:13:51;;;;;;;11.20;8.17;;;;;;;18.35;100.00;100362.22;4993612;28;20244;-78
2023/06/23 02:16:19;;;;;;;11.13;8.73;;;;;;;18.34;100.00;100355.97;4993086;28;20209;-77
2023/06/23 02:18:53;;;;;;;11.87;8.20;;;;;;;18.34;100.00;100355.97;4993158;28;20229;-78
2023/06/23 02:21:20;;;;;;;12.67;8.67;;;;;;;18.34;100.00;100352.41;4993406;28;20661;-78
2023/06/23 02:23:47;;;;;;;10.57;8.37;;;;;;;18.34;100.00;100358.66;4993227;28;20218;-78
2023/06/23 02:26:28;;;;;;;12.80;8.37;;;;;;;18.34;100.00;100360.50;4992905;28;20269;-78
2023/06/23 02:28:55;;;;;;;10.37;8.70;;;;;;;18.34;100.00;100355.13;5005153;28;20231;-78
2023/06/23 02:31:24;;;;;;;10.07;8.57;;;;;;;18.34;100.00;100357.81;5004575;28;20213;-77
2023/06/23 02:33:52;;;;;;;9.97;8.93;;;;;;;18.34;100.00;100363.19;5007284;28;20220;-78
2023/06/23 02:36:21;;;;;;;11.73;9.10;;;;;;;18.33;100.00;100358.81;5004105;28;20210;-78
2023/06/23 02:38:48;;;;;;;14.57;8.90;;;;;;;18.33;100.00;100353.41;5011481;28;20311;-77
2023/06/23 02:41:18;;;;;;;14.43;10.17;;;;;;;18.33;100.00;100358.81;5006142;28;20225;-78
2023/06/23 02:43:47;;;;;;;12.70;10.00;;;;;;;18.33;100.00;100364.19;5006025;28;20226;-77
2023/06/23 02:46:18;;;;;;;12.90;10.33;;;;;;;18.32;100.00;100359.81;5006183;28;20217;-77
2023/06/23 02:48:50;;;;;;;11.23;10.13;;;;;;;18.33;100.00;100364.19;5005425;28;20229;-77
2023/06/23 02:51:22;;;;;;;10.67;9.67;;;;;;;18.32;100.00;100362.50;5000341;28;20206;-78
2023/06/23 02:53:55;;;;;;;14.37;10.80;;;;;;;18.33;100.00;100353.41;5008555;28;20206;-78
2023/06/23 02:56:25;;;;;;;12.43;11.27;;;;;;;18.34;100.00;100349.72;5006976;28;20213;-78
2023/06/23 02:59:03;;;;;;;12.17;11.07;;;;;;;18.33;100.00;100354.28;5007765;28;20244;-77
2023/06/23 03:01:33;;;;;;;13.30;11.90;;;;;;;18.33;100.00;100358.81;5001813;28;20220;-78
2023/06/23 03:04:01;;;;;;;14.10;12.73;;;;;;;18.33;100.00;100356.97;5001927;28;20233;-77
2023/06/23 03:06:28;;;;;;;15.70;12.10;;;;;;;18.34;100.00;100361.34;5003332;28;20245;-77
2023/06/23 03:08:54;;;;;;;14.00;12.60;;;;;;;18.31;100.00;100363.50;5000998;28;20230;-77
2023/06/23 03:11:21;;;;;;;16.60;13.47;;;;;;;18.32;100.00;100357.13;5006024;28;20198;-76
2023/06/23 03:13:49;;;;;;;15.17;13.67;;;;;;;18.31;100.00;100363.50;5005403;28;20611;-77
2023/06/23 03:16:23;;;;;;;16.53;14.03;;;;;;;18.29;100.00;100366.34;5004537;28;20311;-77
2023/06/23 03:18:56;;;;;;;15.93;14.27;;;;;;;18.28;100.00;100363.81;5007248;28;20250;-77
2023/06/23 03:21:25;;;;;;;16.50;14.83;;;;;;;18.29;100.00;100365.50;5002644;28;20236;-78
2023/06/23 03:23:56;;;;;;;18.47;16.83;;;;;;;18.29;100.00;100373.59;5002865;28;20209;-77
2023/06/23 03:26:24;;;;;;;17.83;16.23;;;;;;;18.29;100.00;100363.66;4997212;28;20206;-77
2023/06/23 03:28:55;;;;;;;18.13;16.40;;;;;;;18.28;100.00;100366.50;5002534;28;20716;-78
2023/06/23 03:31:23;;;;;;;18.23;16.43;;;;;;;18.28;100.00;100372.75;5004401;28;20202;-78
2023/06/23 03:33:50;;;;;;;19.10;17.10;;;;;;;18.27;100.00;100370.22;5007053;28;20231;-77
2023/06/23 03:36:21;;;;;;;19.10;17.23;;;;;;;18.28;100.00;100377.28;5002792;28;20205;-77
2023/06/23 03:39:01;;;;;;;20.00;18.00;;;;;;;18.28;100.00;100374.59;5003307;28;20234;-77
2023/06/23 03:41:29;;;;;;;21.13;18.53;;;;;;;18.28;100.00;100379.97;5002155;28;20213;-77
2023/06/23 03:43:59;;;;;;;21.00;18.93;;;;;;;18.27;100.00;100381.00;4995617;28;20218;-77
2023/06/23 03:46:29;;;;;;;20.00;18.10;;;;;;;18.27;100.00;100379.13;5004055;28;20230;-77
2023/06/23 03:48:59;;;;;;;20.67;18.77;;;;;;;18.29;100.00;100381.69;5007415;28;20229;-76
2023/06/23 03:51:28;;;;;;;21.77;19.53;;;;;;;18.29;100.00;100382.53;5005892;28;20202;-76
2023/06/23 03:53:59;;;;;;;22.83;18.97;;;;;;;18.28;100.00;100386.22;5006949;28;20209;-77
2023/06/23 03:56:29;;;;;;;21.93;19.77;;;;;;;18.29;100.00;100374.44;4999965;28;20203;-77
2023/06/23 03:58:57;;;;;;;23.27;20.83;;;;;;;18.29;100.00;100378.97;5008453;28;20245;-76
2023/06/23 04:01:25;;;;;;;22.17;20.07;;;;;;;18.29;100.00;100389.75;5002115;28;20234;-78
2023/06/23 04:03:53;;;;;;;23.00;20.80;;;;;;;18.28;100.00;100388.91;5004742;28;20211;-77
2023/06/23 04:06:21;;;;;;;25.77;21.57;;;;;;;18.30;100.00;100394.16;5006947;28;20289;-77
2023/06/23 04:08:50;;;;;;;24.40;22.00;;;;;;;18.31;100.00;100403.94;5004295;28;20619;-77
2023/06/23 04:11:20;;;;;;;24.73;22.30;;;;;;;18.30;100.00;100402.25;5002628;28;20202;-77
2023/06/23 04:13:48;;;;;;;23.37;20.97;;;;;;;18.30;100.00;100410.34;4999643;28;20212;-77
2023/06/23 04:16:15;;;;;;;24.50;22.10;;;;;;;18.31;100.00;100412.88;5002477;28;20218;-77
2023/06/23 04:18:44;;;;;;;23.67;21.13;;;;;;;18.31;100.00;100420.97;5005704;28;20622;-77
2023/06/23 04:21:12;;;;;;;23.93;21.33;;;;;;;18.31;100.00;100420.13;5004960;28;20232;-77
2023/06/23 04:23:41;;;;;;;21.90;19.67;;;;;;;18.28;100.00;100423.97;5005344;28;20658;-77
2023/06/23 04:26:11;;;;;;;22.77;20.47;;;;;;;18.30;100.00;100429.22;5005681;28;20692;-76
2023/06/23 04:28:42;;;;;;;22.53;20.47;;;;;;;18.30;100.00;100430.06;5009567;28;20633;-77
2023/06/23 04:31:10;;;;;;;23.37;20.70;;;;;;;18.28;100.00;100434.75;5003765;28;20214;-77
2023/06/23 04:33:37;;;;;;;22.00;19.80;;;;;;;18.28;100.00;100441.97;4999397;28;20206;-77
2023/06/23 04:36:13;;;;;;;23.03;20.93;;;;;;;18.28;100.00;100436.59;5007302;28;20839;-77
2023/06/23 04:38:47;;;;;;;21.53;19.40;;;;;;;18.28;100.00;100447.38;5002554;28;20230;-77
2023/06/23 04:41:18;;;;;;;21.57;19.50;;;;;;;18.26;100.00;100450.25;5001567;28;20216;-77
2023/06/23 04:43:51;;;;;;;21.43;18.73;;;;;;;18.26;100.00;100454.78;5010313;28;20223;-77
2023/06/23 04:46:23;;;;;;;20.03;18.10;;;;;;;18.24;100.00;100456.78;5008151;28;20212;-77
2023/06/23 04:48:53;;;;;;;19.20;17.27;;;;;;;18.22;100.00;100464.19;5010987;28;20714;-77
2023/06/23 04:51:22;;;;;;;16.53;14.93;;;;;;;18.21;100.00;100457.09;5003188;28;20203;-77
2023/06/23 04:53:53;;;;;;;17.57;15.87;;;;;;;18.19;100.00;100457.25;5006353;28;20680;-78
2023/06/23 04:56:23;;;;;;;16.40;14.77;;;;;;;18.19;100.00;100464.47;5009046;28;20208;-79
2023/06/23 04:58:56;;;;;;;15.10;13.70;;;;;;;18.15;100.00;100471.16;5005182;28;20226;-77
2023/06/23 05:01:24;;;;;;;16.30;14.70;;;;;;;18.14;100.00;100466.75;5005903;28;20250;-78
2023/06/23 05:03:53;;;;;;;14.43;12.80;;;;;;;18.12;100.00;100480.38;5002122;28;20201;-78
2023/06/23 05:06:22;;;;;;;14.50;13.10;;;;;;;18.06;100.00;100475.63;5007366;28;20208;-78
2023/06/23 05:08:51;;;;;;;13.37;12.00;;;;;;;18.06;100.00;100480.16;5010421;28;20255;-80
2023/06/23 05:11:19;;;;;;;13.80;12.57;;;;;;;18.03;100.00;100484.84;4997725;28;20198;-79
2023/06/23 05:13:47;;;;;;;13.10;11.93;;;;;;;18.00;100.00;100486.97;5003609;28;20208;-79
2023/06/23 05:16:15;;;;;;;12.10;11.10;;;;;;;17.96;100.00;100502.59;5004927;28;20206;-79
2023/06/23 05:18:44;;;;;;;14.20;12.87;;;;;;;17.96;100.00;100510.66;5003245;28;20229;-79
2023/06/23 05:21:13;;;;;;;13.53;12.23;;;;;;;17.95;100.00;100514.34;5009261;28;20233;-79
2023/06/23 05:23:42;;;;;;;13.87;12.57;;;;;;;17.91;100.00;100520.22;5002719;28;20208;-79
2023/06/23 05:26:13;;;;;;;12.33;11.03;;;;;;;17.90;100.00;100524.75;5009846;28;20212;-79
2023/06/23 05:28:40;;;;;;;12.33;11.23;;;;;;;17.89;100.00;100530.28;5005759;28;20234;-79
2023/06/23 05:31:09;;;;;;;11.87;10.77;;;;;;;17.88;100.00;100534.81;5008486;28;20204;-79
2023/06/23 05:33:40;;;;;;;12.43;11.30;;;;;;;17.88;100.00;100533.97;4997932;28;20201;-79
2023/06/23 05:36:10;;;;;;;11.53;10.50;;;;;;;17.84;100.00;100544.19;5004271;28;20231;-79
2023/06/23 05:38:38;;;;;;;11.17;10.17;;;;;;;17.85;100.00;100550.44;5005398;28;20204;-80
2023/06/23 05:41:04;;;;;;;10.93;9.83;;;;;;;17.83;100.00;100555.09;5003238;28;20920;-80
2023/06/23 05:43:31;;;;;;;8.60;7.90;;;;;;;17.84;100.00;100562.19;5003855;28;20833;-79
2023/06/23 05:45:58;;;;;;;7.40;6.70;;;;;;;17.81;100.00;100557.94;5005417;28;20685;-80
2023/06/23 05:48:28;;;;;;;6.60;6.00;;;;;;;17.81;100.00;100565.19;5009728;28;20210;-80
2023/06/23 05:51:01;;;;;;;6.77;6.07;;;;;;;17.78;100.00;100574.41;5008053;28;20607;-80
2023/06/23 05:53:30;;;;;;;6.27;5.77;;;;;;;17.78;100.00;100578.94;5006843;28;20213;-80
2023/06/23 05:56:16;;;;;;;5.93;5.30;;;;;;;17.74;100.00;100588.28;5005261;28;20216;-80
2023/06/23 05:58:46;;;;;;;5.17;4.63;;;;;;;17.72;100.00;100595.69;5005768;28;20332;-81
2023/06/23 06:01:16;;;;;;;4.10;3.50;;;;;;;17.70;100.00;100601.22;5007839;28;20209;-80
2023/06/23 06:03:46;;;;;;;3.90;3.50;;;;;;;17.67;100.00;100610.44;5005566;28;20745;-80
2023/06/23 06:06:15;;;;;;;3.90;3.60;;;;;;;17.65;100.00;100616.94;5003409;28;20214;-81
2023/06/23 06:08:45;;;;;;;3.50;3.20;;;;;;;17.62;100.00;100625.28;5002834;28;20232;-80
2023/06/23 06:11:12;;;;;;;4.13;3.73;;;;;;;17.60;100.00;100625.41;4997067;28;20217;-80
2023/06/23 06:13:43;;;;;;;3.23;3.03;;;;;;;17.55;100.00;100630.41;4999698;28;20208;-81
2023/06/23 06:16:11;;;;;;;3.73;3.30;;;;;;;17.55;100.00;100637.63;5012973;28;20668;-80
2023/06/23 06:18:39;;;;;;;2.70;2.50;;;;;;;17.51;100.00;100657.75;5010619;28;20216;-80
2023/06/23 06:21:07;;;;;;;1.90;1.77;;;;;;;17.47;100.00;100659.03;5005041;28;20235;-80
2023/06/23 06:23:37;;;;;;;1.60;1.50;;;;;;;17.43;100.00;100674.59;5010251;28;20212;-81
2023/06/23 06:26:06;;;;;;;2.27;2.07;;;;;;;17.38;100.00;100682.25;5002257;28;20227;-81
2023/06/23 06:28:34;;;;;;;2.10;1.47;;;;;;;17.31;100.00;100692.72;5003892;28;20314;-80
2023/06/23 06:31:03;;;;;;;1.93;1.80;;;;;;;17.24;100.00;100688.88;5006760;28;20291;-80
2023/06/23 06:33:31;;;;;;;1.93;1.70;;;;;;;17.17;100.00;100713.81;5004096;28;20197;-81
2023/06/23 06:36:03;;;;;;;1.97;1.87;;;;;;;17.15;100.00;100715.78;5003768;28;20208;-80
2023/06/23 06:38:35;;;;;;;2.57;2.37;;;;;;;17.12;100.00;100721.44;5006289;28;20825;-80
2023/06/23 06:41:06;;;;;;;2.70;2.50;;;;;;;17.10;100.00;100735.03;5005196;28;20208;-80
2023/06/23 06:43:33;;;;;;;2.80;2.60;;;;;;;17.09;100.00;100737.84;4998445;28;20234;-80
2023/06/23 06:46:00;;;;;;;3.37;2.80;;;;;;;17.07;100.00;100746.06;5009797;28;20606;-80
2023/06/23 06:48:29;;;;;;;3.50;3.20;;;;;;;17.01;100.00;100768.16;5009599;28;20208;-80
2023/06/23 06:50:56;;;;;;;3.73;3.00;;;;;;;16.98;100.00;100776.50;5009531;28;20212;-80
2023/06/23 06:53:23;;;;;;;3.13;2.93;;;;;;;16.94;100.00;100783.97;5003749;28;20852;-81
2023/06/23 06:55:51;;;;;;;3.50;3.20;;;;;;;16.92;100.00;100787.78;5007592;28;20637;-80
2023/06/23 06:58:19;;;;;;;4.27;3.43;;;;;;;16.87;100.00;100804.31;5013588;28;20227;-80
2023/06/23 07:00:46;;;;;;;4.33;3.60;;;;;;;16.84;100.00;100818.03;5004739;28;20231;-80
2023/06/23 07:03:16;;;;;;;3.83;3.53;;;;;;;16.81;100.00;100825.53;5010223;28;20230;-79
2023/06/23 07:05:43;;;;;;;3.67;3.07;;;;;;;16.79;100.00;100836.44;5009447;28;20646;-79
2023/06/23 07:08:09;;;;;;;3.13;2.93;;;;;;;16.74;100.00;100843.19;5005152;28;20208;-79
2023/06/23 07:10:36;;;;;;;3.73;3.40;;;;;;;16.66;100.00;100851.88;5001790;28;20224;-80
2023/06/23 07:13:03;;;;;;;3.57;3.27;;;;;;;16.65;100.00;100853.75;5004366;28;20707;-80
2023/06/23 07:15:31;;;;;;;3.60;3.30;;;;;;;16.66;100.00;100863.50;5004894;28;20769;-82
2023/06/23 07:17:58;;;;;;;3.80;3.17;;;;;;;16.64;100.00;100867.34;5004863;28;20214;-80
2023/06/23 07:20:24;;;;;;;4.30;3.30;;;;;;;16.64;100.00;100864.63;5004023;28;20260;-81
2023/06/23 07:22:51;;;;;;;4.37;3.77;;;;;;;16.64;100.00;100884.31;5004868;28;20230;-80
2023/06/23 07:25:17;;;;;;;5.47;4.70;;;;;;;16.64;100.00;100876.25;5005873;28;20225;-81
2023/06/23 07:27:47;;;;;;;7.03;5.47;;;;;;;16.64;100.00;100892.38;5000953;28;20209;-81
2023/06/23 07:30:17;;;;;;;6.60;5.90;;;;;;;16.63;100.00;100898.75;5005009;28;20230;-81
2023/06/23 07:32:47;;;;;;;6.10;5.57;;;;;;;16.60;100.00;100890.03;5003603;28;20197;-81
2023/06/23 07:35:16;;;;;;;8.00;5.70;;;;;;;16.57;100.00;100903.75;5008358;28;20664;-81
2023/06/23 07:37:43;;;;;;;7.40;5.03;;;;;;;16.55;100.00;100906.56;5007831;28;20205;-80
2023/06/23 07:40:12;;;;;;;6.50;5.50;;;;;;;16.50;100.00;100914.16;5009806;28;20223;-80
2023/06/23 07:42:39;;;;;;;6.60;5.10;;;;;;;16.50;100.00;100922.22;5011927;28;20227;-80
2023/06/23 07:45:06;;;;;;;5.53;5.03;;;;;;;16.48;100.00;100932.25;5009154;28;20225;-80
2023/06/23 07:47:33;;;;;;;5.33;4.73;;;;;;;16.46;100.00;100928.00;5004058;28;20202;-80
2023/06/23 07:50:01;;;;;;;6.53;5.23;;;;;;;16.44;100.00;100929.97;5007970;28;20229;-80
2023/06/23 07:52:29;;;;;;;6.00;5.50;;;;;;;16.41;100.00;100947.19;5002677;28;20198;-79
2023/06/23 07:54:56;;;;;;;6.63;5.60;;;;;;;16.40;100.00;100950.00;5008237;28;20206;-78
2023/06/23 07:57:22;;;;;;;5.50;5.00;;;;;;;16.37;100.00;100951.13;5009419;28;20203;-77
2023/06/23 07:59:51;;;;;;;6.70;5.47;;;;;;;16.38;100.00;100952.81;5013790;28;20229;-78
2023/06/23 08:02:19;;;;;;;6.37;5.77;;;;;;;16.38;100.00;100957.34;5008265;28;20233;-79
2023/06/23 08:04:45;;;;;;;6.07;5.47;;;;;;;16.38;100.00;100951.97;5007715;28;20210;-78
2023/06/23 08:07:13;;;;;;;5.77;4.83;;;;;;;16.39;100.00;100972.50;5013423;28;20585;-78
2023/06/23 08:09:39;;;;;;;6.53;5.93;;;;;;;16.40;100.00;100975.06;5007063;28;20227;-78
2023/06/23 08:12:07;;;;;;;6.77;6.07;;;;;;;16.41;100.00;100970.53;5001650;28;20202;-78
2023/06/23 08:14:37;;;;;;;5.90;5.30;;;;;;;16.40;100.00;100980.44;5012430;28;20523;-78
2023/06/23 08:17:03;;;;;;;7.00;6.00;;;;;;;16.42;100.00;100988.38;5015685;28;20274;-80
2023/06/23 08:19:31;;;;;;;5.70;5.20;;;;;;;16.44;100.00;100994.47;5010463;28;20229;-79
2023/06/23 08:21:58;;;;;;;5.70;5.20;;;;;;;16.45;100.00;100999.72;5007985;28;20214;-78
2023/06/23 08:24:26;;;;;;;5.87;5.27;;;;;;;16.47;100.00;100995.09;5009560;28;20229;-77
2023/06/23 08:26:52;;;;;;;4.93;4.37;;;;;;;16.47;100.00;101005.84;5008655;28;20211;-77
2023/06/23 08:29:19;;;;;;;5.53;4.47;;;;;;;16.47;100.00;101003.16;5020532;28;20229;-78
2023/06/23 08:31:45;;;;;;;4.40;4.03;;;;;;;16.48;100.00;101006.69;5022540;28;20221;-77
2023/06/23 08:34:12;;;;;;;5.07;4.40;;;;;;;16.47;100.00;101021.97;5022564;28;20693;-78
2023/06/23 08:36:39;;;;;;;4.57;4.17;;;;;;;16.49;100.00;101033.44;5004358;28;20229;-78
2023/06/23 08:39:05;;;;;;;4.47;4.07;;;;;;;16.50;100.00;101043.19;5009707;28;20227;-78
2023/06/23 08:41:35;;;;;;;5.13;4.63;;;;;;;16.51;100.00;101042.22;5017477;28;20211;-78
2023/06/23 08:44:02;;;;;;;6.20;5.60;;;;;;;16.53;100.00;101052.84;5013131;28;20605;-78
2023/06/23 08:46:31;;;;;;;6.03;5.43;;;;;;;16.54;100.00;101062.63;5015431;28;20269;-78
2023/06/23 08:49:02;;;;;;;6.77;6.17;;;;;;;16.57;100.00;101065.06;5006495;28;20310;-78
2023/06/23 08:51:29;;;;;;;6.67;6.07;;;;;;;16.59;100.00;101073.88;5004122;28;20213;-79
2023/06/23 08:53:59;;;;;;;7.20;6.53;;;;;;;16.60;100.00;101079.13;5007363;28;20600;-79
2023/06/23 08:56:29;;;;;;;7.10;6.50;;;;;;;16.61;100.00;101083.53;5007349;28;20210;-78
2023/06/23 08:58:58;;;;;;;7.70;6.90;;;;;;;16.64;100.00;101095.91;5013632;28;20234;-78
2023/06/23 09:01:24;;;;;;;7.53;6.80;;;;;;;16.67;100.00;101107.25;5015195;28;20214;-78
2023/06/23 09:03:51;;;;;;;8.20;7.47;;;;;;;16.67;100.00;101095.63;5013084;28;20225;-78
2023/06/23 09:06:18;;;;;;;7.80;7.10;;;;;;;16.69;100.00;101115.19;5009569;28;20658;-79
2023/06/23 09:08:44;;;;;;;7.57;6.87;;;;;;;16.69;100.00;101120.56;5012039;28;20231;-78
2023/06/23 09:11:12;;;;;;;6.83;6.23;;;;;;;16.69;100.00;101125.94;5004514;28;20210;-78
2023/06/23 09:13:42;;;;;;;7.00;6.40;;;;;;;16.69;100.00;101123.25;5006553;28;20247;-78
2023/06/23 09:16:11;;;;;;;7.80;7.00;;;;;;;16.70;100.00;101129.50;5008509;28;20686;-80
2023/06/23 09:18:40;;;;;;;7.23;6.60;;;;;;;16.69;100.00;101135.84;5001375;28;20210;-78
2023/06/23 09:21:08;;;;;;;7.77;7.07;;;;;;;16.69;100.00;101143.91;5009601;28;20232;-79
2023/06/23 09:24:01;;;;;;;7.80;7.07;;;;;;;16.69;100.00;101144.78;5002710;28;20228;-79
2023/06/23 09:26:27;;;;;;;8.07;7.27;;;;;;;16.69;100.00;101150.16;5017448;28;20676;-79
2023/06/23 09:29:14;;;;;;;8.00;7.20;;;;;;;16.69;100.00;101154.69;5011961;28;20230;-79
2023/06/23 09:31:42;;;;;;;7.33;6.63;;;;;;;16.68;100.00;101153.81;5009230;28;20206;-78
2023/06/23 09:34:09;;;;;;;7.10;6.50;;;;;;;16.64;100.00;101161.31;5010917;28;20217;-78
2023/06/23 09:36:36;;;;;;;7.47;6.77;;;;;;;16.67;100.00;101168.25;5011137;28;20213;-79
2023/06/23 09:39:04;;;;;;;8.00;6.60;;;;;;;16.66;100.00;101167.41;5009907;28;20593;-79
2023/06/23 09:41:32;;;;;;;7.17;6.00;;;;;;;16.67;100.00;101184.38;5005529;28;20214;-78
2023/06/23 09:43:59;;;;;;;6.73;5.50;;;;;;;16.66;100.00;101178.16;5009618;28;20875;-78
2023/06/23 09:46:27;;;;;;;6.57;5.90;;;;;;;16.66;100.00;101190.75;5005366;28;20206;-78
2023/06/23 09:48:55;;;;;;;6.17;5.57;;;;;;;16.65;100.00;101192.59;5009869;28;20223;-78
2023/06/23 09:51:22;;;;;;;5.93;5.30;;;;;;;16.62;100.00;101192.81;5006911;28;20200;-78
2023/06/23 09:53:49;;;;;;;7.40;5.87;;;;;;;16.62;100.00;101200.88;5007977;28;20641;-78
2023/06/23 09:56:17;;;;;;;6.00;5.43;;;;;;;16.60;100.00;101205.53;5009845;28;20207;-78
2023/06/23 09:58:44;;;;;;;7.27;5.33;;;;;;;16.59;100.00;101195.75;5010164;28;20278;-78
2023/06/23 10:01:15;;;;;;;6.23;5.43;;;;;;;16.60;100.00;101202.84;4999963;28;20214;-79
2023/06/23 10:03:43;;;;;;;5.17;4.70;;;;;;;16.61;100.00;101211.75;5000746;28;20269;-78
2023/06/23 10:06:21;;;;;;;6.00;5.40;;;;;;;16.60;100.00;101210.91;5007322;28;20219;-78
2023/06/23 10:08:48;;;;;;;6.73;5.90;;;;;;;16.61;100.00;101214.44;5010043;28;20238;-78
2023/06/23 10:11:17;;;;;;;6.97;5.90;;;;;;;16.63;100.00;101226.84;5007573;28;20206;-79
2023/06/23 10:13:44;;;;;;;6.03;5.43;;;;;;;16.66;100.00;101231.09;5002881;28;20234;-79
2023/06/23 10:16:11;;;;;;;7.07;6.37;;;;;;;16.68;100.00;101242.59;5010598;28;20215;-78
2023/06/23 10:18:38;;;;;;;7.80;5.90;;;;;;;16.72;100.00;101240.50;5004416;28;20689;-80
2023/06/23 10:21:04;;;;;;;6.90;6.00;;;;;;;16.75;100.00;101237.59;5006754;28;20214;-80
2023/06/23 10:23:33;;;;;;;7.50;6.70;;;;;;;16.77;100.00;101241.88;5009337;28;20228;-80
2023/06/23 10:26:02;;;;;;;7.13;6.43;;;;;;;16.79;100.00;101241.75;5007121;28;20207;-80
2023/06/23 10:28:29;;;;;;;7.37;6.10;;;;;;;16.81;100.00;101237.09;5002890;28;20206;-80
2023/06/23 10:30:58;;;;;;;7.17;6.30;;;;;;;16.83;100.00;101244.06;5005081;28;20213;-79
2023/06/23 10:33:26;;;;;;;6.50;5.87;;;;;;;16.86;100.00;101248.31;5006706;28;20800;-81
2023/06/23 10:35:57;;;;;;;7.23;6.00;;;;;;;16.87;100.00;101245.50;5014813;28;20214;-80
2023/06/23 10:38:27;;;;;;;7.13;6.43;;;;;;;16.91;100.00;101248.81;5014495;28;20210;-81
2023/06/23 10:41:00;;;;;;;7.20;6.50;;;;;;;16.92;100.00;101250.53;5004264;28;20208;-81
2023/06/23 10:43:30;;;;;;;7.17;6.47;;;;;;;16.95;100.00;101247.59;5000316;28;20589;-82
2023/06/23 10:45:57;;;;;;;7.70;6.90;;;;;;;16.96;100.00;101250.19;5014393;28;20769;-80
2023/06/23 10:48:25;;;;;;;8.67;7.20;;;;;;;16.97;100.00;101257.28;5012661;28;20210;-81
2023/06/23 10:50:55;;;;;;;8.33;6.47;;;;;;;16.98;100.00;101258.97;5007815;28;20199;-80
2023/06/23 10:53:28;;;;;;;7.87;6.37;;;;;;;17.00;100.00;101262.41;5009105;28;20257;-81
2023/06/23 10:55:57;;;;;;;7.47;6.77;;;;;;;17.00;100.00;101266.94;5005153;28;20770;-80
2023/06/23 10:58:24;;;;;;;7.80;7.03;;;;;;;17.01;100.00;101265.97;5001568;28;20617;-79
2023/06/23 11:01:00;;;;;;;6.30;5.70;;;;;;;17.02;100.00;101270.31;5002730;28;20464;-78
2023/06/23 11:03:31;;;;;;;7.13;6.43;;;;;;;17.04;100.00;101271.06;5004441;28;20223;-78
2023/06/23 11:06:00;;;;;;;7.77;7.03;;;;;;;17.04;100.00;101275.59;5007754;28;20203;-78
2023/06/23 11:08:32;;;;;;;9.00;6.93;;;;;;;17.04;100.00;101280.97;5006297;28;20208;-79
2023/06/23 11:11:05;;;;;;;9.67;6.83;;;;;;;17.02;100.00;101286.47;5002258;28;20235;-80
2023/06/23 11:13:43;;;;;;;9.53;7.70;;;;;;;17.02;100.00;101284.66;5004324;28;20207;-80
2023/06/23 11:16:15;;;;;;;7.90;7.20;;;;;;;17.02;100.00;101298.09;5002257;28;20604;-80
2023/06/23 11:18:49;;;;;;;8.67;7.50;;;;;;;17.02;100.00;101298.09;5000701;28;20274;-79
2023/06/23 11:21:17;;;;;;;9.83;8.27;;;;;;;17.04;100.00;101305.19;5001323;28;20250;-79